Meling Ranch Airstrip

Jump to: basic info | weather | comments

Related pages: nearby airports | nearby navaids

Basic information (top)

Codes: MSJG
Location: lon 30.975328, lat -115.737877
Status: small_airport

Weather (top)

Current conditions for General Rodolfo Sánchez Taboada International Airport 103nm (190km) NNE (rec'd 2014/12/21 04:43Z):

MMML 210443Z 00000KT 10SM SCT120 BKN200 12/07 A3012 RMK 8/078

Airport forecast for General Rodolfo Sánchez Taboada International Airport 103nm (190km) NNE (rec'd 2014/12/12 18:18Z):

TAF MMML 121716Z 1218/1318 14015KT P6SM SCT030 BKN120 BKN230 
     FM122200 16015KT P6SM BKN015 OVC100 
      TEMPO 1223/1303 5SM -RA 
     FM130500 20012KT 6SM -RA BKN015 OVC070 
      TEMPO 1306/1310 3SM DZ BR OVC005 
     FM131600 28010KT 4SM HZ SCT010 BKN090 OVC250

Latest comments (top)

No comments yet for Meling Ranch Airstrip

More... (top)

See also NOTAMs and nearby airports and navaids, or visit the Meling Ranch Airstrip page at the main OurAirports website..